sensor_id;sensor_type;location;lat;lon;timestamp;P1;durP1;ratioP1;P2;durP2;ratioP2
2728;SDS011;1372;47.956;7.830;2023-06-04T00:01:51;7.03;;;6.33;;
2728;SDS011;1372;47.956;7.830;2023-06-04T00:04:21;7.13;;;6.23;;
2728;SDS011;1372;47.956;7.830;2023-06-04T00:06:50;6.27;;;5.67;;
2728;SDS011;1372;47.956;7.830;2023-06-04T00:09:20;7.50;;;6.80;;
2728;SDS011;1372;47.956;7.830;2023-06-04T00:11:49;6.80;;;6.10;;
2728;SDS011;1372;47.956;7.830;2023-06-04T00:14:19;6.47;;;5.87;;
2728;SDS011;1372;47.956;7.830;2023-06-04T00:16:48;6.63;;;6.10;;
2728;SDS011;1372;47.956;7.830;2023-06-04T00:19:17;7.00;;;6.30;;
2728;SDS011;1372;47.956;7.830;2023-06-04T00:21:47;8.40;;;6.07;;
2728;SDS011;1372;47.956;7.830;2023-06-04T00:24:16;6.90;;;6.30;;
2728;SDS011;1372;47.956;7.830;2023-06-04T00:26:45;9.07;;;6.53;;
2728;SDS011;1372;47.956;7.830;2023-06-04T00:29:17;6.70;;;6.00;;
2728;SDS011;1372;47.956;7.830;2023-06-04T00:31:46;6.80;;;6.20;;
2728;SDS011;1372;47.956;7.830;2023-06-04T00:34:16;6.77;;;5.93;;
2728;SDS011;1372;47.956;7.830;2023-06-04T00:36:45;6.70;;;6.03;;
2728;SDS011;1372;47.956;7.830;2023-06-04T00:39:18;7.60;;;5.90;;
2728;SDS011;1372;47.956;7.830;2023-06-04T00:41:47;6.70;;;6.10;;
2728;SDS011;1372;47.956;7.830;2023-06-04T00:44:19;6.43;;;5.83;;
2728;SDS011;1372;47.956;7.830;2023-06-04T00:46:51;8.13;;;6.20;;
2728;SDS011;1372;47.956;7.830;2023-06-04T00:49:21;7.53;;;6.73;;
2728;SDS011;1372;47.956;7.830;2023-06-04T00:51:51;6.80;;;6.20;;
2728;SDS011;1372;47.956;7.830;2023-06-04T00:54:20;7.37;;;6.67;;
2728;SDS011;1372;47.956;7.830;2023-06-04T00:56:50;7.00;;;6.40;;
2728;SDS011;1372;47.956;7.830;2023-06-04T00:59:18;7.63;;;6.67;;
2728;SDS011;1372;47.956;7.830;2023-06-04T01:01:49;7.10;;;6.13;;
2728;SDS011;1372;47.956;7.830;2023-06-04T01:04:34;7.73;;;6.67;;
2728;SDS011;1372;47.956;7.830;2023-06-04T01:07:21;6.47;;;5.87;;
2728;SDS011;1372;47.956;7.830;2023-06-04T01:09:50;8.10;;;7.00;;
2728;SDS011;1372;47.956;7.830;2023-06-04T01:12:19;7.63;;;6.97;;
2728;SDS011;1372;47.956;7.830;2023-06-04T01:14:48;7.03;;;6.43;;
2728;SDS011;1372;47.956;7.830;2023-06-04T01:17:18;6.53;;;5.90;;
2728;SDS011;1372;47.956;7.830;2023-06-04T01:20:02;7.73;;;7.00;;
2728;SDS011;1372;47.956;7.830;2023-06-04T01:22:51;7.37;;;6.50;;
2728;SDS011;1372;47.956;7.830;2023-06-04T01:25:41;7.53;;;6.73;;
2728;SDS011;1372;47.956;7.830;2023-06-04T01:28:12;7.13;;;6.53;;
2728;SDS011;1372;47.956;7.830;2023-06-04T01:30:43;7.13;;;6.43;;
2728;SDS011;1372;47.956;7.830;2023-06-04T01:33:15;6.80;;;6.20;;
2728;SDS011;1372;47.956;7.830;2023-06-04T01:35:45;7.13;;;6.43;;
2728;SDS011;1372;47.956;7.830;2023-06-04T01:38:16;7.27;;;6.57;;
2728;SDS011;1372;47.956;7.830;2023-06-04T01:40:46;7.20;;;6.50;;
2728;SDS011;1372;47.956;7.830;2023-06-04T01:43:15;8.27;;;7.47;;
2728;SDS011;1372;47.956;7.830;2023-06-04T01:45:44;7.83;;;7.03;;
2728;SDS011;1372;47.956;7.830;2023-06-04T01:48:16;6.90;;;6.30;;
2728;SDS011;1372;47.956;7.830;2023-06-04T01:50:45;6.63;;;5.93;;
2728;SDS011;1372;47.956;7.830;2023-06-04T01:53:16;7.40;;;6.70;;
2728;SDS011;1372;47.956;7.830;2023-06-04T01:55:47;8.07;;;7.27;;
2728;SDS011;1372;47.956;7.830;2023-06-04T01:58:19;8.13;;;7.37;;
2728;SDS011;1372;47.956;7.830;2023-06-04T02:00:53;7.43;;;6.40;;
2728;SDS011;1372;47.956;7.830;2023-06-04T02:03:22;7.73;;;6.93;;
2728;SDS011;1372;47.956;7.830;2023-06-04T02:05:54;7.73;;;6.70;;
2728;SDS011;1372;47.956;7.830;2023-06-04T02:08:25;7.30;;;6.60;;
2728;SDS011;1372;47.956;7.830;2023-06-04T02:10:54;7.73;;;6.00;;
2728;SDS011;1372;47.956;7.830;2023-06-04T02:13:23;7.30;;;6.53;;
2728;SDS011;1372;47.956;7.830;2023-06-04T02:15:54;7.40;;;6.50;;
2728;SDS011;1372;47.956;7.830;2023-06-04T02:18:23;7.93;;;7.27;;
2728;SDS011;1372;47.956;7.830;2023-06-04T02:20:52;6.90;;;6.27;;
2728;SDS011;1372;47.956;7.830;2023-06-04T02:23:22;6.77;;;6.17;;
2728;SDS011;1372;47.956;7.830;2023-06-04T02:25:52;6.60;;;5.90;;
2728;SDS011;1372;47.956;7.830;2023-06-04T02:28:21;8.30;;;7.50;;
2728;SDS011;1372;47.956;7.830;2023-06-04T02:30:51;7.70;;;6.60;;
2728;SDS011;1372;47.956;7.830;2023-06-04T02:33:20;6.43;;;5.70;;
2728;SDS011;1372;47.956;7.830;2023-06-04T02:35:49;8.87;;;6.50;;
2728;SDS011;1372;47.956;7.830;2023-06-04T02:38:21;8.07;;;7.20;;
2728;SDS011;1372;47.956;7.830;2023-06-04T02:40:52;6.63;;;6.03;;
2728;SDS011;1372;47.956;7.830;2023-06-04T02:43:23;8.50;;;7.20;;
2728;SDS011;1372;47.956;7.830;2023-06-04T02:45:52;7.00;;;6.30;;
2728;SDS011;1372;47.956;7.830;2023-06-04T02:48:21;6.90;;;6.30;;
2728;SDS011;1372;47.956;7.830;2023-06-04T02:50:49;7.20;;;6.53;;
2728;SDS011;1372;47.956;7.830;2023-06-04T02:53:18;7.17;;;6.47;;
2728;SDS011;1372;47.956;7.830;2023-06-04T02:55:48;8.00;;;6.43;;
2728;SDS011;1372;47.956;7.830;2023-06-04T02:58:20;6.77;;;6.10;;
2728;SDS011;1372;47.956;7.830;2023-06-04T03:00:55;8.23;;;6.77;;
2728;SDS011;1372;47.956;7.830;2023-06-04T03:03:24;7.17;;;6.47;;
2728;SDS011;1372;47.956;7.830;2023-06-04T03:05:54;7.80;;;7.10;;
2728;SDS011;1372;47.956;7.830;2023-06-04T03:08:23;8.00;;;6.33;;
2728;SDS011;1372;47.956;7.830;2023-06-04T03:10:52;7.10;;;6.40;;
2728;SDS011;1372;47.956;7.830;2023-06-04T03:13:22;7.00;;;6.40;;
2728;SDS011;1372;47.956;7.830;2023-06-04T03:15:51;7.40;;;6.70;;
2728;SDS011;1372;47.956;7.830;2023-06-04T03:18:24;7.17;;;6.47;;
2728;SDS011;1372;47.956;7.830;2023-06-04T03:20:53;7.20;;;6.47;;
2728;SDS011;1372;47.956;7.830;2023-06-04T03:23:22;8.00;;;6.63;;
2728;SDS011;1372;47.956;7.830;2023-06-04T03:25:51;8.00;;;6.80;;
2728;SDS011;1372;47.956;7.830;2023-06-04T03:28:21;6.80;;;5.80;;
2728;SDS011;1372;47.956;7.830;2023-06-04T03:30:51;7.13;;;6.50;;
2728;SDS011;1372;47.956;7.830;2023-06-04T03:33:20;9.57;;;6.60;;
2728;SDS011;1372;47.956;7.830;2023-06-04T03:35:49;7.07;;;6.40;;
2728;SDS011;1372;47.956;7.830;2023-06-04T03:38:21;7.63;;;6.77;;
2728;SDS011;1372;47.956;7.830;2023-06-04T03:40:53;7.20;;;6.50;;
2728;SDS011;1372;47.956;7.830;2023-06-04T03:43:26;7.93;;;7.23;;
2728;SDS011;1372;47.956;7.830;2023-06-04T03:45:55;7.60;;;6.90;;
2728;SDS011;1372;47.956;7.830;2023-06-04T03:48:23;7.70;;;7.00;;
2728;SDS011;1372;47.956;7.830;2023-06-04T03:50:52;7.87;;;6.67;;
2728;SDS011;1372;47.956;7.830;2023-06-04T03:53:22;7.53;;;6.83;;
2728;SDS011;1372;47.956;7.830;2023-06-04T03:55:51;8.60;;;6.80;;
2728;SDS011;1372;47.956;7.830;2023-06-04T03:58:20;9.00;;;7.77;;
2728;SDS011;1372;47.956;7.830;2023-06-04T04:00:50;7.00;;;6.30;;
2728;SDS011;1372;47.956;7.830;2023-06-04T04:03:19;7.23;;;6.50;;
2728;SDS011;1372;47.956;7.830;2023-06-04T04:05:48;7.67;;;6.97;;
2728;SDS011;1372;47.956;7.830;2023-06-04T04:08:17;7.50;;;6.73;;
2728;SDS011;1372;47.956;7.830;2023-06-04T04:10:48;7.43;;;6.73;;
2728;SDS011;1372;47.956;7.830;2023-06-04T04:13:17;8.40;;;7.60;;
2728;SDS011;1372;47.956;7.830;2023-06-04T04:15:46;7.70;;;6.90;;
2728;SDS011;1372;47.956;7.830;2023-06-04T04:18:22;7.67;;;6.90;;
2728;SDS011;1372;47.956;7.830;2023-06-04T04:20:51;7.50;;;6.70;;
2728;SDS011;1372;47.956;7.830;2023-06-04T04:23:23;7.90;;;6.87;;
2728;SDS011;1372;47.956;7.830;2023-06-04T04:25:54;7.63;;;6.87;;
2728;SDS011;1372;47.956;7.830;2023-06-04T04:28:25;8.10;;;7.30;;
2728;SDS011;1372;47.956;7.830;2023-06-04T04:30:57;7.63;;;6.93;;
2728;SDS011;1372;47.956;7.830;2023-06-04T04:33:31;7.87;;;7.17;;
2728;SDS011;1372;47.956;7.830;2023-06-04T04:36:03;8.20;;;7.40;;
2728;SDS011;1372;47.956;7.830;2023-06-04T04:38:38;7.30;;;6.60;;
2728;SDS011;1372;47.956;7.830;2023-06-04T04:41:07;7.87;;;7.17;;
2728;SDS011;1372;47.956;7.830;2023-06-04T04:43:39;8.30;;;7.47;;
2728;SDS011;1372;47.956;7.830;2023-06-04T04:46:09;8.67;;;7.77;;
2728;SDS011;1372;47.956;7.830;2023-06-04T04:48:40;7.07;;;6.40;;
2728;SDS011;1372;47.956;7.830;2023-06-04T04:51:09;8.03;;;7.20;;
2728;SDS011;1372;47.956;7.830;2023-06-04T04:53:38;7.67;;;6.90;;
2728;SDS011;1372;47.956;7.830;2023-06-04T04:56:09;8.77;;;7.20;;
2728;SDS011;1372;47.956;7.830;2023-06-04T04:58:40;7.70;;;6.77;;
2728;SDS011;1372;47.956;7.830;2023-06-04T05:01:11;7.10;;;6.40;;
2728;SDS011;1372;47.956;7.830;2023-06-04T05:03:42;9.30;;;7.27;;
2728;SDS011;1372;47.956;7.830;2023-06-04T05:06:11;8.07;;;7.10;;
2728;SDS011;1372;47.956;7.830;2023-06-04T05:08:40;8.60;;;6.73;;
2728;SDS011;1372;47.956;7.830;2023-06-04T05:11:11;7.37;;;6.67;;
2728;SDS011;1372;47.956;7.830;2023-06-04T05:13:39;7.40;;;6.70;;
2728;SDS011;1372;47.956;7.830;2023-06-04T05:16:09;8.17;;;7.37;;
2728;SDS011;1372;47.956;7.830;2023-06-04T05:18:38;8.10;;;7.30;;
2728;SDS011;1372;47.956;7.830;2023-06-04T05:21:09;8.20;;;7.40;;
2728;SDS011;1372;47.956;7.830;2023-06-04T05:23:39;8.10;;;7.33;;
2728;SDS011;1372;47.956;7.830;2023-06-04T05:26:09;9.03;;;7.03;;
2728;SDS011;1372;47.956;7.830;2023-06-04T05:28:37;7.33;;;6.70;;
2728;SDS011;1372;47.956;7.830;2023-06-04T05:31:10;8.77;;;7.87;;
2728;SDS011;1372;47.956;7.830;2023-06-04T05:33:40;10.57;;;6.77;;
2728;SDS011;1372;47.956;7.830;2023-06-04T05:36:14;7.93;;;7.20;;
2728;SDS011;1372;47.956;7.830;2023-06-04T05:38:43;9.40;;;7.40;;
2728;SDS011;1372;47.956;7.830;2023-06-04T05:41:12;10.43;;;7.90;;
2728;SDS011;1372;47.956;7.830;2023-06-04T05:43:41;8.77;;;6.83;;
2728;SDS011;1372;47.956;7.830;2023-06-04T05:46:11;7.87;;;7.07;;
2728;SDS011;1372;47.956;7.830;2023-06-04T05:48:40;7.87;;;7.07;;
2728;SDS011;1372;47.956;7.830;2023-06-04T05:51:09;8.47;;;7.40;;
2728;SDS011;1372;47.956;7.830;2023-06-04T05:53:39;8.17;;;6.60;;
2728;SDS011;1372;47.956;7.830;2023-06-04T05:56:08;8.87;;;6.70;;
2728;SDS011;1372;47.956;7.830;2023-06-04T05:58:38;8.37;;;7.40;;
2728;SDS011;1372;47.956;7.830;2023-06-04T06:01:07;8.70;;;6.43;;
2728;SDS011;1372;47.956;7.830;2023-06-04T06:03:36;7.93;;;6.83;;
2728;SDS011;1372;47.956;7.830;2023-06-04T06:06:05;8.00;;;6.73;;
2728;SDS011;1372;47.956;7.830;2023-06-04T06:08:37;7.40;;;6.70;;
2728;SDS011;1372;47.956;7.830;2023-06-04T06:11:07;7.60;;;5.60;;
2728;SDS011;1372;47.956;7.830;2023-06-04T06:13:39;8.77;;;6.10;;
2728;SDS011;1372;47.956;7.830;2023-06-04T06:16:08;6.30;;;5.70;;
2728;SDS011;1372;47.956;7.830;2023-06-04T06:18:39;6.43;;;5.13;;
2728;SDS011;1372;47.956;7.830;2023-06-04T06:21:08;10.13;;;5.10;;
2728;SDS011;1372;47.956;7.830;2023-06-04T06:23:37;4.97;;;4.50;;
2728;SDS011;1372;47.956;7.830;2023-06-04T06:26:08;5.30;;;4.80;;
2728;SDS011;1372;47.956;7.830;2023-06-04T06:28:38;5.57;;;4.73;;
2728;SDS011;1372;47.956;7.830;2023-06-04T06:31:06;6.67;;;5.40;;
2728;SDS011;1372;47.956;7.830;2023-06-04T06:33:36;5.93;;;5.27;;
2728;SDS011;1372;47.956;7.830;2023-06-04T06:36:10;6.23;;;5.43;;
2728;SDS011;1372;47.956;7.830;2023-06-04T06:38:39;6.43;;;5.20;;
2728;SDS011;1372;47.956;7.830;2023-06-04T06:41:09;5.20;;;4.50;;
2728;SDS011;1372;47.956;7.830;2023-06-04T06:43:42;5.53;;;5.03;;
2728;SDS011;1372;47.956;7.830;2023-06-04T06:46:11;6.37;;;5.73;;
2728;SDS011;1372;47.956;7.830;2023-06-04T06:48:40;6.47;;;5.87;;
2728;SDS011;1372;47.956;7.830;2023-06-04T06:51:12;5.90;;;5.37;;
2728;SDS011;1372;47.956;7.830;2023-06-04T06:53:41;6.60;;;5.67;;
2728;SDS011;1372;47.956;7.830;2023-06-04T06:56:15;7.37;;;5.50;;
2728;SDS011;1372;47.956;7.830;2023-06-04T06:58:45;8.33;;;5.77;;
2728;SDS011;1372;47.956;7.830;2023-06-04T07:01:14;7.33;;;5.10;;
2728;SDS011;1372;47.956;7.830;2023-06-04T07:03:43;7.13;;;5.90;;
2728;SDS011;1372;47.956;7.830;2023-06-04T07:06:15;6.03;;;5.53;;
2728;SDS011;1372;47.956;7.830;2023-06-04T07:08:44;6.50;;;5.40;;
2728;SDS011;1372;47.956;7.830;2023-06-04T07:11:16;7.70;;;6.73;;
2728;SDS011;1372;47.956;7.830;2023-06-04T07:13:47;6.40;;;5.80;;
2728;SDS011;1372;47.956;7.830;2023-06-04T07:16:17;8.90;;;6.30;;
2728;SDS011;1372;47.956;7.830;2023-06-04T07:18:47;6.33;;;5.70;;
2728;SDS011;1372;47.956;7.830;2023-06-04T07:21:16;7.23;;;6.50;;
2728;SDS011;1372;47.956;7.830;2023-06-04T07:23:46;6.83;;;6.23;;
2728;SDS011;1372;47.956;7.830;2023-06-04T07:26:19;9.10;;;8.10;;
2728;SDS011;1372;47.956;7.830;2023-06-04T07:28:51;5.90;;;5.30;;
2728;SDS011;1372;47.956;7.830;2023-06-04T07:31:21;8.73;;;7.10;;
2728;SDS011;1372;47.956;7.830;2023-06-04T07:33:50;6.30;;;5.70;;
2728;SDS011;1372;47.956;7.830;2023-06-04T07:36:19;5.70;;;5.20;;
2728;SDS011;1372;47.956;7.830;2023-06-04T07:38:49;6.67;;;5.83;;
2728;SDS011;1372;47.956;7.830;2023-06-04T07:41:19;10.57;;;6.23;;
2728;SDS011;1372;47.956;7.830;2023-06-04T07:43:48;6.13;;;5.63;;
2728;SDS011;1372;47.956;7.830;2023-06-04T07:46:18;5.97;;;5.37;;
2728;SDS011;1372;47.956;7.830;2023-06-04T07:48:47;6.27;;;5.67;;
2728;SDS011;1372;47.956;7.830;2023-06-04T07:51:16;7.23;;;6.20;;
2728;SDS011;1372;47.956;7.830;2023-06-04T07:53:46;5.60;;;5.00;;
2728;SDS011;1372;47.956;7.830;2023-06-04T07:56:15;7.93;;;5.97;;
2728;SDS011;1372;47.956;7.830;2023-06-04T07:58:45;6.43;;;5.30;;
2728;SDS011;1372;47.956;7.830;2023-06-04T08:01:15;5.87;;;4.97;;
2728;SDS011;1372;47.956;7.830;2023-06-04T08:03:43;5.73;;;5.23;;
2728;SDS011;1372;47.956;7.830;2023-06-04T08:06:13;6.47;;;5.87;;
2728;SDS011;1372;47.956;7.830;2023-06-04T08:08:42;6.97;;;6.00;;
2728;SDS011;1372;47.956;7.830;2023-06-04T08:11:13;6.37;;;4.93;;
2728;SDS011;1372;47.956;7.830;2023-06-04T08:13:46;6.30;;;5.60;;
2728;SDS011;1372;47.956;7.830;2023-06-04T08:16:15;5.37;;;4.87;;
2728;SDS011;1372;47.956;7.830;2023-06-04T08:18:44;5.53;;;5.03;;
2728;SDS011;1372;47.956;7.830;2023-06-04T08:21:14;6.70;;;5.80;;
2728;SDS011;1372;47.956;7.830;2023-06-04T08:23:53;5.20;;;4.70;;
2728;SDS011;1372;47.956;7.830;2023-06-04T08:26:22;7.63;;;5.37;;
2728;SDS011;1372;47.956;7.830;2023-06-04T08:28:53;6.53;;;5.17;;
2728;SDS011;1372;47.956;7.830;2023-06-04T08:31:23;5.73;;;5.23;;
2728;SDS011;1372;47.956;7.830;2023-06-04T08:33:52;5.53;;;4.97;;
2728;SDS011;1372;47.956;7.830;2023-06-04T08:36:21;6.60;;;4.80;;
2728;SDS011;1372;47.956;7.830;2023-06-04T08:38:50;6.10;;;4.60;;
2728;SDS011;1372;47.956;7.830;2023-06-04T08:41:23;4.70;;;4.30;;
2728;SDS011;1372;47.956;7.830;2023-06-04T08:43:58;4.83;;;4.40;;
2728;SDS011;1372;47.956;7.830;2023-06-04T08:46:28;4.30;;;3.90;;
2728;SDS011;1372;47.956;7.830;2023-06-04T08:49:00;4.83;;;4.20;;
2728;SDS011;1372;47.956;7.830;2023-06-04T08:51:33;7.17;;;3.80;;
2728;SDS011;1372;47.956;7.830;2023-06-04T08:54:05;5.30;;;3.87;;
2728;SDS011;1372;47.956;7.830;2023-06-04T08:56:35;4.10;;;3.63;;
2728;SDS011;1372;47.956;7.830;2023-06-04T08:59:06;5.60;;;4.07;;
2728;SDS011;1372;47.956;7.830;2023-06-04T09:01:38;6.20;;;4.93;;
2728;SDS011;1372;47.956;7.830;2023-06-04T09:04:08;5.73;;;5.23;;
2728;SDS011;1372;47.956;7.830;2023-06-04T09:06:41;4.60;;;4.20;;
2728;SDS011;1372;47.956;7.830;2023-06-04T09:09:11;4.47;;;3.90;;
2728;SDS011;1372;47.956;7.830;2023-06-04T09:11:45;4.07;;;3.67;;
2728;SDS011;1372;47.956;7.830;2023-06-04T09:14:19;5.80;;;4.30;;
2728;SDS011;1372;47.956;7.830;2023-06-04T09:16:49;7.13;;;4.20;;
2728;SDS011;1372;47.956;7.830;2023-06-04T09:19:21;5.17;;;4.20;;
2728;SDS011;1372;47.956;7.830;2023-06-04T09:21:51;4.40;;;4.10;;
2728;SDS011;1372;47.956;7.830;2023-06-04T09:24:25;4.77;;;4.10;;
2728;SDS011;1372;47.956;7.830;2023-06-04T09:27:10;4.93;;;4.43;;
2728;SDS011;1372;47.956;7.830;2023-06-04T09:29:48;5.87;;;4.30;;
2728;SDS011;1372;47.956;7.830;2023-06-04T09:32:21;3.77;;;3.47;;
2728;SDS011;1372;47.956;7.830;2023-06-04T09:34:50;4.63;;;4.23;;
2728;SDS011;1372;47.956;7.830;2023-06-04T09:37:20;5.93;;;4.10;;
2728;SDS011;1372;47.956;7.830;2023-06-04T09:39:53;4.60;;;4.10;;
2728;SDS011;1372;47.956;7.830;2023-06-04T09:42:22;8.23;;;4.17;;
2728;SDS011;1372;47.956;7.830;2023-06-04T09:44:53;4.30;;;3.90;;
2728;SDS011;1372;47.956;7.830;2023-06-04T09:47:22;4.97;;;4.57;;
2728;SDS011;1372;47.956;7.830;2023-06-04T09:49:52;5.63;;;5.13;;
2728;SDS011;1372;47.956;7.830;2023-06-04T09:52:21;5.60;;;4.80;;
2728;SDS011;1372;47.956;7.830;2023-06-04T09:55:02;5.90;;;5.40;;
2728;SDS011;1372;47.956;7.830;2023-06-04T09:57:31;6.27;;;5.13;;
2728;SDS011;1372;47.956;7.830;2023-06-04T10:00:04;6.80;;;6.10;;
2728;SDS011;1372;47.956;7.830;2023-06-04T10:02:38;7.30;;;6.50;;
2728;SDS011;1372;47.956;7.830;2023-06-04T10:05:08;7.00;;;6.30;;
2728;SDS011;1372;47.956;7.830;2023-06-04T10:07:41;7.40;;;6.63;;
2728;SDS011;1372;47.956;7.830;2023-06-04T10:10:13;6.17;;;5.57;;
2728;SDS011;1372;47.956;7.830;2023-06-04T10:12:45;6.93;;;6.23;;
2728;SDS011;1372;47.956;7.830;2023-06-04T10:15:21;6.80;;;6.17;;
2728;SDS011;1372;47.956;7.830;2023-06-04T10:17:51;7.20;;;6.47;;
2728;SDS011;1372;47.956;7.830;2023-06-04T10:20:22;8.63;;;6.17;;
2728;SDS011;1372;47.956;7.830;2023-06-04T10:22:54;7.87;;;7.13;;
2728;SDS011;1372;47.956;7.830;2023-06-04T10:25:25;7.70;;;6.80;;
2728;SDS011;1372;47.956;7.830;2023-06-04T10:27:55;7.07;;;6.37;;
2728;SDS011;1372;47.956;7.830;2023-06-04T10:30:28;8.27;;;6.40;;
2728;SDS011;1372;47.956;7.830;2023-06-04T10:32:57;6.63;;;6.03;;
2728;SDS011;1372;47.956;7.830;2023-06-04T10:35:30;6.70;;;5.97;;
2728;SDS011;1372;47.956;7.830;2023-06-04T10:38:06;6.57;;;5.77;;
2728;SDS011;1372;47.956;7.830;2023-06-04T10:40:36;6.80;;;6.10;;
2728;SDS011;1372;47.956;7.830;2023-06-04T10:43:05;7.20;;;6.50;;
2728;SDS011;1372;47.956;7.830;2023-06-04T10:45:37;7.57;;;6.87;;
2728;SDS011;1372;47.956;7.830;2023-06-04T10:48:07;6.77;;;6.07;;
2728;SDS011;1372;47.956;7.830;2023-06-04T10:50:47;7.10;;;6.40;;
2728;SDS011;1372;47.956;7.830;2023-06-04T10:53:19;6.50;;;5.90;;
2728;SDS011;1372;47.956;7.830;2023-06-04T10:55:50;6.20;;;5.67;;
2728;SDS011;1372;47.956;7.830;2023-06-04T10:58:19;6.87;;;5.97;;
2728;SDS011;1372;47.956;7.830;2023-06-04T11:00:49;6.70;;;6.00;;
2728;SDS011;1372;47.956;7.830;2023-06-04T11:03:21;8.10;;;6.20;;
2728;SDS011;1372;47.956;7.830;2023-06-04T11:05:50;6.43;;;5.93;;
2728;SDS011;1372;47.956;7.830;2023-06-04T11:08:26;8.30;;;6.60;;
2728;SDS011;1372;47.956;7.830;2023-06-04T11:10:57;7.60;;;6.80;;
2728;SDS011;1372;47.956;7.830;2023-06-04T11:13:28;6.40;;;5.83;;
2728;SDS011;1372;47.956;7.830;2023-06-04T11:15:59;7.47;;;6.03;;
2728;SDS011;1372;47.956;7.830;2023-06-04T11:18:27;6.40;;;5.57;;
2728;SDS011;1372;47.956;7.830;2023-06-04T11:21:00;8.00;;;6.43;;
2728;SDS011;1372;47.956;7.830;2023-06-04T11:23:29;6.67;;;5.80;;
2728;SDS011;1372;47.956;7.830;2023-06-04T11:25:58;7.43;;;6.80;;
2728;SDS011;1372;47.956;7.830;2023-06-04T11:28:27;6.13;;;5.60;;
2728;SDS011;1372;47.956;7.830;2023-06-04T11:30:58;7.20;;;5.87;;
2728;SDS011;1372;47.956;7.830;2023-06-04T11:33:29;6.20;;;5.60;;
2728;SDS011;1372;47.956;7.830;2023-06-04T11:36:21;7.73;;;6.03;;
2728;SDS011;1372;47.956;7.830;2023-06-04T11:38:54;5.57;;;5.10;;
2728;SDS011;1372;47.956;7.830;2023-06-04T11:41:24;6.67;;;5.67;;
2728;SDS011;1372;47.956;7.830;2023-06-04T11:43:57;6.10;;;5.50;;
2728;SDS011;1372;47.956;7.830;2023-06-04T11:46:34;6.03;;;5.43;;
2728;SDS011;1372;47.956;7.830;2023-06-04T11:49:07;7.03;;;5.60;;
2728;SDS011;1372;47.956;7.830;2023-06-04T11:51:36;6.30;;;5.70;;
2728;SDS011;1372;47.956;7.830;2023-06-04T11:54:08;7.67;;;6.33;;
2728;SDS011;1372;47.956;7.830;2023-06-04T11:56:39;6.80;;;6.20;;
2728;SDS011;1372;47.956;7.830;2023-06-04T11:59:11;6.30;;;5.70;;
2728;SDS011;1372;47.956;7.830;2023-06-04T12:01:43;6.30;;;5.70;;
2728;SDS011;1372;47.956;7.830;2023-06-04T12:04:14;6.50;;;5.13;;
2728;SDS011;1372;47.956;7.830;2023-06-04T12:06:53;6.37;;;5.87;;
2728;SDS011;1372;47.956;7.830;2023-06-04T12:09:23;6.00;;;5.50;;
2728;SDS011;1372;47.956;7.830;2023-06-04T12:11:59;5.70;;;5.20;;
2728;SDS011;1372;47.956;7.830;2023-06-04T12:14:29;6.10;;;5.50;;
2728;SDS011;1372;47.956;7.830;2023-06-04T12:17:07;6.33;;;5.73;;
2728;SDS011;1372;47.956;7.830;2023-06-04T12:19:45;6.13;;;5.53;;
2728;SDS011;1372;47.956;7.830;2023-06-04T12:22:16;7.93;;;5.73;;
2728;SDS011;1372;47.956;7.830;2023-06-04T12:24:46;7.83;;;6.17;;
2728;SDS011;1372;47.956;7.830;2023-06-04T12:27:20;6.47;;;5.97;;
2728;SDS011;1372;47.956;7.830;2023-06-04T12:29:56;5.93;;;5.43;;
2728;SDS011;1372;47.956;7.830;2023-06-04T12:32:27;6.07;;;5.57;;
2728;SDS011;1372;47.956;7.830;2023-06-04T12:34:57;6.43;;;5.90;;
2728;SDS011;1372;47.956;7.830;2023-06-04T12:37:35;6.10;;;5.60;;
2728;SDS011;1372;47.956;7.830;2023-06-04T12:40:04;6.50;;;5.83;;
2728;SDS011;1372;47.956;7.830;2023-06-04T12:42:34;6.30;;;5.10;;
2728;SDS011;1372;47.956;7.830;2023-06-04T12:45:03;6.23;;;5.70;;
2728;SDS011;1372;47.956;7.830;2023-06-04T12:47:39;5.80;;;5.30;;
2728;SDS011;1372;47.956;7.830;2023-06-04T12:50:11;8.27;;;6.43;;
2728;SDS011;1372;47.956;7.830;2023-06-04T12:52:39;6.50;;;5.77;;
2728;SDS011;1372;47.956;7.830;2023-06-04T12:55:09;6.67;;;6.07;;
2728;SDS011;1372;47.956;7.830;2023-06-04T12:57:40;6.73;;;6.03;;
2728;SDS011;1372;47.956;7.830;2023-06-04T13:00:11;7.10;;;5.80;;
2728;SDS011;1372;47.956;7.830;2023-06-04T13:02:47;6.40;;;5.90;;
2728;SDS011;1372;47.956;7.830;2023-06-04T13:05:16;6.97;;;5.63;;
2728;SDS011;1372;47.956;7.830;2023-06-04T13:07:45;6.17;;;5.50;;
2728;SDS011;1372;47.956;7.830;2023-06-04T13:10:16;6.57;;;5.97;;
2728;SDS011;1372;47.956;7.830;2023-06-04T13:12:45;6.10;;;5.60;;
2728;SDS011;1372;47.956;7.830;2023-06-04T13:15:14;6.07;;;5.57;;
2728;SDS011;1372;47.956;7.830;2023-06-04T13:17:43;6.50;;;5.90;;
2728;SDS011;1372;47.956;7.830;2023-06-04T13:20:13;6.77;;;6.20;;
2728;SDS011;1372;47.956;7.830;2023-06-04T13:22:42;6.37;;;5.77;;
2728;SDS011;1372;47.956;7.830;2023-06-04T13:25:11;6.67;;;5.57;;
2728;SDS011;1372;47.956;7.830;2023-06-04T13:27:40;6.90;;;6.20;;
2728;SDS011;1372;47.956;7.830;2023-06-04T13:30:09;6.23;;;5.67;;
2728;SDS011;1372;47.956;7.830;2023-06-04T13:32:40;5.90;;;5.40;;
2728;SDS011;1372;47.956;7.830;2023-06-04T13:35:08;7.07;;;5.83;;
2728;SDS011;1372;47.956;7.830;2023-06-04T13:37:39;6.40;;;5.80;;
2728;SDS011;1372;47.956;7.830;2023-06-04T13:40:08;7.20;;;5.40;;
2728;SDS011;1372;47.956;7.830;2023-06-04T13:42:40;5.80;;;5.30;;
2728;SDS011;1372;47.956;7.830;2023-06-04T13:45:10;6.07;;;5.57;;
2728;SDS011;1372;47.956;7.830;2023-06-04T13:47:40;6.10;;;5.60;;
2728;SDS011;1372;47.956;7.830;2023-06-04T13:50:09;5.90;;;5.50;;
2728;SDS011;1372;47.956;7.830;2023-06-04T13:52:42;6.57;;;5.97;;
2728;SDS011;1372;47.956;7.830;2023-06-04T13:55:12;6.40;;;5.90;;
2728;SDS011;1372;47.956;7.830;2023-06-04T13:57:41;6.67;;;6.07;;
2728;SDS011;1372;47.956;7.830;2023-06-04T14:00:13;6.80;;;5.80;;
2728;SDS011;1372;47.956;7.830;2023-06-04T14:02:42;5.70;;;5.20;;
2728;SDS011;1372;47.956;7.830;2023-06-04T14:05:12;5.20;;;4.70;;
2728;SDS011;1372;47.956;7.830;2023-06-04T14:07:41;6.17;;;5.57;;
2728;SDS011;1372;47.956;7.830;2023-06-04T14:10:11;6.20;;;5.60;;
2728;SDS011;1372;47.956;7.830;2023-06-04T14:12:41;5.33;;;4.83;;
2728;SDS011;1372;47.956;7.830;2023-06-04T14:15:13;5.27;;;4.87;;
2728;SDS011;1372;47.956;7.830;2023-06-04T14:17:42;7.23;;;6.13;;
2728;SDS011;1372;47.956;7.830;2023-06-04T14:20:11;6.00;;;5.50;;
2728;SDS011;1372;47.956;7.830;2023-06-04T14:22:44;6.47;;;5.97;;
2728;SDS011;1372;47.956;7.830;2023-06-04T14:25:12;6.23;;;5.70;;
2728;SDS011;1372;47.956;7.830;2023-06-04T14:27:41;6.10;;;5.67;;
2728;SDS011;1372;47.956;7.830;2023-06-04T14:30:11;6.03;;;5.50;;
2728;SDS011;1372;47.956;7.830;2023-06-04T14:32:40;6.80;;;6.23;;
2728;SDS011;1372;47.956;7.830;2023-06-04T14:35:09;6.27;;;5.77;;
2728;SDS011;1372;47.956;7.830;2023-06-04T14:37:39;5.73;;;5.13;;
2728;SDS011;1372;47.956;7.830;2023-06-04T14:40:10;5.57;;;5.07;;
2728;SDS011;1372;47.956;7.830;2023-06-04T14:42:40;6.37;;;5.77;;
2728;SDS011;1372;47.956;7.830;2023-06-04T14:45:09;6.60;;;5.70;;
2728;SDS011;1372;47.956;7.830;2023-06-04T14:47:38;6.63;;;5.60;;
2728;SDS011;1372;47.956;7.830;2023-06-04T14:50:10;5.83;;;5.33;;
2728;SDS011;1372;47.956;7.830;2023-06-04T14:52:39;5.43;;;5.03;;
2728;SDS011;1372;47.956;7.830;2023-06-04T14:55:13;5.00;;;4.60;;
2728;SDS011;1372;47.956;7.830;2023-06-04T14:57:42;5.70;;;4.80;;
2728;SDS011;1372;47.956;7.830;2023-06-04T15:00:11;4.77;;;4.37;;
2728;SDS011;1372;47.956;7.830;2023-06-04T15:02:40;5.10;;;4.60;;
2728;SDS011;1372;47.956;7.830;2023-06-04T15:05:12;6.23;;;4.10;;
2728;SDS011;1372;47.956;7.830;2023-06-04T15:07:41;5.27;;;4.57;;
2728;SDS011;1372;47.956;7.830;2023-06-04T15:10:10;4.40;;;4.00;;
2728;SDS011;1372;47.956;7.830;2023-06-04T15:12:40;5.03;;;4.53;;
2728;SDS011;1372;47.956;7.830;2023-06-04T15:15:10;4.13;;;3.73;;
2728;SDS011;1372;47.956;7.830;2023-06-04T15:17:39;4.07;;;3.77;;
2728;SDS011;1372;47.956;7.830;2023-06-04T15:20:12;5.57;;;5.00;;
2728;SDS011;1372;47.956;7.830;2023-06-04T15:22:44;4.90;;;4.50;;
2728;SDS011;1372;47.956;7.830;2023-06-04T15:25:16;4.30;;;4.00;;
2728;SDS011;1372;47.956;7.830;2023-06-04T15:27:47;4.37;;;3.97;;
2728;SDS011;1372;47.956;7.830;2023-06-04T15:30:16;4.93;;;4.47;;
2728;SDS011;1372;47.956;7.830;2023-06-04T15:32:47;4.17;;;3.80;;
2728;SDS011;1372;47.956;7.830;2023-06-04T15:35:16;4.93;;;4.40;;
2728;SDS011;1372;47.956;7.830;2023-06-04T15:37:45;4.40;;;4.00;;